Portada
METAR-TAF:

METAR-TAF

Aeroports :

Lae, Papua Nova Guinea

latitud: 6-34-11S, longitud: 146-43-34E, altitud: 73 m

Observació

L'informe es va fer fa 20 hores i 52 minuts, a les 03:00 UTC
Vent 6 kt del Est/Sud-Est
Temperatura 32°C
Humitat 59%
Pressió 1006 hPa
Visibilitat 10 km o més
Núvols disperses a una alçada de 3500 ft
Núvols disperses a una alçada de 12000 ft

METAR: AYNZ 010300Z 12006KT 9999 SCT035 SCT120 32/23 Q1006

Hora: 09:52 (23:52 UTC)


TAF: manca

Observacions i pronòstics meteorològics de més de 4000 aeroports (METAR i TAF).

Les estacions disponibles són els punts grocs i vermells al mapa.

Posi el ratolí al punt desitjat per veure el nom de l'estació.

Feu clic per veure les observacions i els pronòstics meteorològics.

Per canviar el mapa: feu clic els botons verds amb una creu de color negre per apropar; al botó verd amb un guió per allunyar la imatge; o en les fletxes verdes per a mapes adjacents.


METAR-TAF: